sensor_id;sensor_type;location;lat;lon;timestamp;pressure;altitude;pressure_sealevel;temperature;humidity
29549;BME280;16487;53.094;8.800;2023-04-19T00:00:08;102849.63;;;7.30;100.00
29549;BME280;16487;53.094;8.800;2023-04-19T00:02:36;102824.84;;;7.18;100.00
29549;BME280;16487;53.094;8.800;2023-04-19T00:05:05;102788.38;;;7.16;100.00
29549;BME280;16487;53.094;8.800;2023-04-19T00:07:32;102748.47;;;6.97;100.00
29549;BME280;16487;53.094;8.800;2023-04-19T00:10:00;102710.06;;;6.99;100.00
29549;BME280;16487;53.094;8.800;2023-04-19T00:12:28;102665.63;;;6.92;100.00
29549;BME280;16487;53.094;8.800;2023-04-19T00:14:55;102639.81;;;6.88;100.00
29549;BME280;16487;53.094;8.800;2023-04-19T00:17:24;102617.63;;;6.88;100.00
29549;BME280;16487;53.094;8.800;2023-04-19T00:19:51;102594.22;;;6.86;100.00
29549;BME280;16487;53.094;8.800;2023-04-19T00:22:19;102564.44;;;6.79;100.00
29549;BME280;16487;53.094;8.800;2023-04-19T00:24:46;102544.59;;;6.77;100.00
29549;BME280;16487;53.094;8.800;2023-04-19T00:27:13;102523.94;;;6.71;100.00
29549;BME280;16487;53.094;8.800;2023-04-19T00:29:41;102506.94;;;6.73;100.00
29549;BME280;16487;53.094;8.800;2023-04-19T00:32:08;102495.81;;;6.69;100.00
29549;BME280;16487;53.094;8.800;2023-04-19T00:34:37;102499.78;;;6.72;100.00
29549;BME280;16487;53.094;8.800;2023-04-19T00:37:05;102497.06;;;6.75;100.00
29549;BME280;16487;53.094;8.800;2023-04-19T00:39:32;102504.88;;;6.66;100.00
29549;BME280;16487;53.094;8.800;2023-04-19T00:41:59;102504.88;;;6.66;100.00
29549;BME280;16487;53.094;8.800;2023-04-19T00:44:27;102506.09;;;6.69;100.00
29549;BME280;16487;53.094;8.800;2023-04-19T00:46:55;102507.59;;;6.63;100.00
29549;BME280;16487;53.094;8.800;2023-04-19T00:49:23;102521.28;;;6.52;100.00
29549;BME280;16487;53.094;8.800;2023-04-19T00:51:53;102520.91;;;6.54;100.00
29549;BME280;16487;53.094;8.800;2023-04-19T00:54:21;102521.97;;;6.46;100.00
29549;BME280;16487;53.094;8.800;2023-04-19T00:56:50;102523.94;;;6.45;100.00
29549;BME280;16487;53.094;8.800;2023-04-19T00:59:17;102513.22;;;6.44;100.00
29549;BME280;16487;53.094;8.800;2023-04-19T01:01:44;102510.78;;;6.39;100.00
29549;BME280;16487;53.094;8.800;2023-04-19T01:04:12;102509.84;;;6.31;100.00
29549;BME280;16487;53.094;8.800;2023-04-19T01:06:40;102505.06;;;6.28;100.00
29549;BME280;16487;53.094;8.800;2023-04-19T01:09:11;102499.91;;;6.27;100.00
29549;BME280;16487;53.094;8.800;2023-04-19T01:11:40;102509.00;;;6.27;100.00
29549;BME280;16487;53.094;8.800;2023-04-19T01:14:09;102508.09;;;6.20;100.00
29549;BME280;16487;53.094;8.800;2023-04-19T01:16:37;102505.44;;;6.27;100.00
29549;BME280;16487;53.094;8.800;2023-04-19T01:19:04;102504.88;;;6.18;100.00
29549;BME280;16487;53.094;8.800;2023-04-19T01:21:31;102511.25;;;6.22;100.00
29549;BME280;16487;53.094;8.800;2023-04-19T01:24:00;102520.63;;;6.14;100.00
29549;BME280;16487;53.094;8.800;2023-04-19T01:26:27;102526.91;;;6.11;100.00
29549;BME280;16487;53.094;8.800;2023-04-19T01:28:55;102530.59;;;5.96;100.00
29549;BME280;16487;53.094;8.800;2023-04-19T01:31:22;102532.88;;;5.90;100.00
29549;BME280;16487;53.094;8.800;2023-04-19T01:33:49;102523.97;;;6.00;100.00
29549;BME280;16487;53.094;8.800;2023-04-19T01:36:17;102532.81;;;5.87;100.00
29549;BME280;16487;53.094;8.800;2023-04-19T01:38:44;102529.88;;;5.79;100.00
29549;BME280;16487;53.094;8.800;2023-04-19T01:41:13;102527.47;;;5.78;100.00
29549;BME280;16487;53.094;8.800;2023-04-19T01:43:40;102515.03;;;5.68;100.00
29549;BME280;16487;53.094;8.800;2023-04-19T01:46:08;102513.06;;;5.69;100.00
29549;BME280;16487;53.094;8.800;2023-04-19T01:48:37;102510.19;;;5.62;100.00
29549;BME280;16487;53.094;8.800;2023-04-19T01:51:04;102515.56;;;5.55;100.00
29549;BME280;16487;53.094;8.800;2023-04-19T01:53:34;102511.56;;;5.52;100.00
29549;BME280;16487;53.094;8.800;2023-04-19T01:56:01;102516.16;;;5.45;100.00
29549;BME280;16487;53.094;8.800;2023-04-19T01:58:29;102495.78;;;5.53;100.00
29549;BME280;16487;53.094;8.800;2023-04-19T02:00:57;102508.44;;;5.54;100.00
29549;BME280;16487;53.094;8.800;2023-04-19T02:03:25;102508.16;;;5.40;100.00
29549;BME280;16487;53.094;8.800;2023-04-19T02:05:52;102511.22;;;5.35;100.00
29549;BME280;16487;53.094;8.800;2023-04-19T02:08:21;102512.16;;;5.23;100.00
29549;BME280;16487;53.094;8.800;2023-04-19T02:10:48;102501.41;;;5.18;100.00
29549;BME280;16487;53.094;8.800;2023-04-19T02:13:16;102481.25;;;5.18;100.00
29549;BME280;16487;53.094;8.800;2023-04-19T02:15:45;102470.00;;;5.07;100.00
29549;BME280;16487;53.094;8.800;2023-04-19T02:18:12;102453.56;;;4.95;100.00
29549;BME280;16487;53.094;8.800;2023-04-19T02:20:40;102432.97;;;4.93;100.00
29549;BME280;16487;53.094;8.800;2023-04-19T02:23:07;102417.66;;;4.76;100.00
29549;BME280;16487;53.094;8.800;2023-04-19T02:25:34;102395.63;;;4.80;100.00
29549;BME280;16487;53.094;8.800;2023-04-19T02:28:02;102377.94;;;4.65;100.00
29549;BME280;16487;53.094;8.800;2023-04-19T02:30:29;102351.50;;;4.64;100.00
29549;BME280;16487;53.094;8.800;2023-04-19T02:32:58;102316.75;;;4.63;100.00
29549;BME280;16487;53.094;8.800;2023-04-19T02:35:26;102291.53;;;4.64;100.00
29549;BME280;16487;53.094;8.800;2023-04-19T02:37:53;102280.34;;;4.57;100.00
29549;BME280;16487;53.094;8.800;2023-04-19T02:40:21;102251.75;;;4.46;100.00
29549;BME280;16487;53.094;8.800;2023-04-19T02:42:49;102227.63;;;4.43;100.00
29549;BME280;16487;53.094;8.800;2023-04-19T02:45:17;102217.47;;;4.47;100.00
29549;BME280;16487;53.094;8.800;2023-04-19T02:47:45;102199.19;;;4.39;100.00
29549;BME280;16487;53.094;8.800;2023-04-19T02:50:15;102185.63;;;4.31;100.00
29549;BME280;16487;53.094;8.800;2023-04-19T02:52:51;102162.00;;;4.33;100.00
29549;BME280;16487;53.094;8.800;2023-04-19T02:55:20;102157.94;;;4.27;100.00
29549;BME280;16487;53.094;8.800;2023-04-19T02:57:54;102146.31;;;4.37;100.00
29549;BME280;16487;53.094;8.800;2023-04-19T03:00:21;102151.25;;;4.28;100.00
29549;BME280;16487;53.094;8.800;2023-04-19T03:03:01;102144.47;;;4.22;100.00
29549;BME280;16487;53.094;8.800;2023-04-19T03:05:30;102136.59;;;4.05;100.00
29549;BME280;16487;53.094;8.800;2023-04-19T03:07:58;102128.47;;;4.12;100.00
29549;BME280;16487;53.094;8.800;2023-04-19T03:10:25;102118.91;;;4.06;100.00
29549;BME280;16487;53.094;8.800;2023-04-19T03:12:52;102117.38;;;4.09;100.00
29549;BME280;16487;53.094;8.800;2023-04-19T03:15:20;102109.75;;;4.02;100.00
29549;BME280;16487;53.094;8.800;2023-04-19T03:17:47;102102.22;;;3.99;100.00
29549;BME280;16487;53.094;8.800;2023-04-19T03:20:14;102098.00;;;4.05;100.00
29549;BME280;16487;53.094;8.800;2023-04-19T03:22:43;102088.56;;;4.06;100.00
29549;BME280;16487;53.094;8.800;2023-04-19T03:25:10;102090.03;;;4.00;100.00
29549;BME280;16487;53.094;8.800;2023-04-19T03:27:38;102089.19;;;3.96;100.00
29549;BME280;16487;53.094;8.800;2023-04-19T03:30:11;102087.34;;;4.04;100.00
29549;BME280;16487;53.094;8.800;2023-04-19T03:32:39;102092.06;;;4.03;100.00
29549;BME280;16487;53.094;8.800;2023-04-19T03:35:08;102095.31;;;4.09;100.00
29549;BME280;16487;53.094;8.800;2023-04-19T03:37:35;102096.72;;;3.99;100.00
29549;BME280;16487;53.094;8.800;2023-04-19T03:40:05;102102.16;;;3.96;100.00
29549;BME280;16487;53.094;8.800;2023-04-19T03:42:33;102102.97;;;3.96;100.00
29549;BME280;16487;53.094;8.800;2023-04-19T03:45:11;102109.31;;;4.00;100.00
29549;BME280;16487;53.094;8.800;2023-04-19T03:47:44;102112.22;;;4.07;100.00
29549;BME280;16487;53.094;8.800;2023-04-19T03:50:12;102108.47;;;3.96;100.00
29549;BME280;16487;53.094;8.800;2023-04-19T03:52:43;102113.41;;;3.87;100.00
29549;BME280;16487;53.094;8.800;2023-04-19T03:55:13;102116.03;;;3.80;100.00
29549;BME280;16487;53.094;8.800;2023-04-19T03:57:41;102117.63;;;3.81;100.00
29549;BME280;16487;53.094;8.800;2023-04-19T04:00:23;102113.72;;;3.82;100.00
29549;BME280;16487;53.094;8.800;2023-04-19T04:02:55;102113.34;;;3.84;100.00
29549;BME280;16487;53.094;8.800;2023-04-19T04:05:26;102114.22;;;3.69;100.00
29549;BME280;16487;53.094;8.800;2023-04-19T04:07:53;102111.03;;;3.67;100.00
29549;BME280;16487;53.094;8.800;2023-04-19T04:10:23;102112.41;;;3.57;100.00
29549;BME280;16487;53.094;8.800;2023-04-19T04:12:50;102108.44;;;3.55;100.00
29549;BME280;16487;53.094;8.800;2023-04-19T04:15:24;102093.69;;;3.66;100.00
29549;BME280;16487;53.094;8.800;2023-04-19T04:17:53;102100.00;;;3.47;100.00
29549;BME280;16487;53.094;8.800;2023-04-19T04:20:20;102097.53;;;3.42;100.00
29549;BME280;16487;53.094;8.800;2023-04-19T04:22:50;102086.00;;;3.37;100.00
29549;BME280;16487;53.094;8.800;2023-04-19T04:25:20;102078.19;;;3.39;100.00
29549;BME280;16487;53.094;8.800;2023-04-19T04:27:51;102077.75;;;3.37;100.00
29549;BME280;16487;53.094;8.800;2023-04-19T04:30:22;102065.31;;;3.46;100.00
29549;BME280;16487;53.094;8.800;2023-04-19T04:32:52;102063.16;;;3.36;100.00
29549;BME280;16487;53.094;8.800;2023-04-19T04:35:20;102061.06;;;3.49;100.00
29549;BME280;16487;53.094;8.800;2023-04-19T04:37:54;102057.44;;;3.45;100.00
29549;BME280;16487;53.094;8.800;2023-04-19T04:40:21;102053.16;;;3.47;100.00
29549;BME280;16487;53.094;8.800;2023-04-19T04:42:50;102056.84;;;3.36;100.00
29549;BME280;16487;53.094;8.800;2023-04-19T04:45:17;102056.50;;;3.37;100.00
29549;BME280;16487;53.094;8.800;2023-04-19T04:47:46;102052.06;;;3.33;100.00
29549;BME280;16487;53.094;8.800;2023-04-19T04:50:14;102060.63;;;3.28;100.00
29549;BME280;16487;53.094;8.800;2023-04-19T04:52:42;102048.50;;;3.32;100.00
29549;BME280;16487;53.094;8.800;2023-04-19T04:55:14;102049.75;;;3.35;100.00
29549;BME280;16487;53.094;8.800;2023-04-19T04:57:43;102049.00;;;3.38;100.00
29549;BME280;16487;53.094;8.800;2023-04-19T05:00:22;102042.56;;;3.30;100.00
29549;BME280;16487;53.094;8.800;2023-04-19T05:02:57;102032.47;;;3.38;100.00
29549;BME280;16487;53.094;8.800;2023-04-19T05:05:26;102044.97;;;3.32;100.00
29549;BME280;16487;53.094;8.800;2023-04-19T05:07:55;102036.69;;;3.32;100.00
29549;BME280;16487;53.094;8.800;2023-04-19T05:10:22;102036.78;;;3.35;100.00
29549;BME280;16487;53.094;8.800;2023-04-19T05:12:49;102041.78;;;3.30;100.00
29549;BME280;16487;53.094;8.800;2023-04-19T05:15:17;102038.22;;;3.29;100.00
29549;BME280;16487;53.094;8.800;2023-04-19T05:17:51;102040.75;;;3.38;100.00
29549;BME280;16487;53.094;8.800;2023-04-19T05:20:20;102045.47;;;3.37;100.00
29549;BME280;16487;53.094;8.800;2023-04-19T05:22:56;102049.88;;;3.42;100.00
29549;BME280;16487;53.094;8.800;2023-04-19T05:25:23;102043.66;;;3.45;100.00
29549;BME280;16487;53.094;8.800;2023-04-19T05:27:52;102044.31;;;3.38;100.00
29549;BME280;16487;53.094;8.800;2023-04-19T05:30:19;102051.13;;;3.44;100.00
29549;BME280;16487;53.094;8.800;2023-04-19T05:32:46;102055.56;;;3.49;100.00
29549;BME280;16487;53.094;8.800;2023-04-19T05:35:15;102060.31;;;3.52;100.00
29549;BME280;16487;53.094;8.800;2023-04-19T05:37:43;102051.84;;;3.61;100.00
29549;BME280;16487;53.094;8.800;2023-04-19T05:40:11;102073.19;;;3.64;100.00
29549;BME280;16487;53.094;8.800;2023-04-19T05:42:39;102070.84;;;3.66;100.00
29549;BME280;16487;53.094;8.800;2023-04-19T05:45:07;102073.66;;;3.69;100.00
29549;BME280;16487;53.094;8.800;2023-04-19T05:47:35;102075.72;;;3.72;100.00
29549;BME280;16487;53.094;8.800;2023-04-19T05:50:22;102089.91;;;3.74;100.00
29549;BME280;16487;53.094;8.800;2023-04-19T05:53:19;102086.81;;;3.76;100.00
29549;BME280;16487;53.094;8.800;2023-04-19T05:55:46;102086.44;;;3.77;100.00
29549;BME280;16487;53.094;8.800;2023-04-19T05:58:14;102088.41;;;3.77;100.00
29549;BME280;16487;53.094;8.800;2023-04-19T06:00:41;102086.22;;;3.86;100.00
29549;BME280;16487;53.094;8.800;2023-04-19T06:03:12;102088.75;;;3.94;100.00
29549;BME280;16487;53.094;8.800;2023-04-19T06:05:41;102101.44;;;3.99;100.00
29549;BME280;16487;53.094;8.800;2023-04-19T06:08:08;102103.94;;;4.07;100.00
29549;BME280;16487;53.094;8.800;2023-04-19T06:10:36;102113.97;;;4.15;100.00
29549;BME280;16487;53.094;8.800;2023-04-19T06:13:21;102129.13;;;4.25;100.00
29549;BME280;16487;53.094;8.800;2023-04-19T06:15:48;102145.13;;;4.38;100.00
29549;BME280;16487;53.094;8.800;2023-04-19T06:18:16;102157.47;;;4.44;100.00
29549;BME280;16487;53.094;8.800;2023-04-19T06:20:47;102172.63;;;4.54;100.00
29549;BME280;16487;53.094;8.800;2023-04-19T06:23:14;102208.28;;;4.62;100.00
29549;BME280;16487;53.094;8.800;2023-04-19T06:25:42;102224.97;;;4.69;100.00
29549;BME280;16487;53.094;8.800;2023-04-19T06:28:10;102247.31;;;4.84;100.00
29549;BME280;16487;53.094;8.800;2023-04-19T06:30:37;102271.94;;;4.92;100.00
29549;BME280;16487;53.094;8.800;2023-04-19T06:33:04;102300.13;;;5.01;100.00
29549;BME280;16487;53.094;8.800;2023-04-19T06:35:32;102322.44;;;5.12;100.00
29549;BME280;16487;53.094;8.800;2023-04-19T06:38:00;102355.84;;;5.26;100.00
29549;BME280;16487;53.094;8.800;2023-04-19T06:40:28;102376.53;;;5.35;100.00
29549;BME280;16487;53.094;8.800;2023-04-19T06:42:55;102391.75;;;5.45;100.00
29549;BME280;16487;53.094;8.800;2023-04-19T06:45:23;102411.41;;;5.62;100.00
29549;BME280;16487;53.094;8.800;2023-04-19T06:47:50;102433.66;;;5.69;100.00
29549;BME280;16487;53.094;8.800;2023-04-19T06:50:18;102465.75;;;5.74;100.00
29549;BME280;16487;53.094;8.800;2023-04-19T06:52:45;102497.97;;;5.86;100.00
29549;BME280;16487;53.094;8.800;2023-04-19T06:55:14;102525.78;;;5.93;100.00
29549;BME280;16487;53.094;8.800;2023-04-19T06:57:41;102560.81;;;6.04;100.00
29549;BME280;16487;53.094;8.800;2023-04-19T07:00:09;102580.13;;;6.23;100.00
29549;BME280;16487;53.094;8.800;2023-04-19T07:02:37;102617.84;;;6.31;100.00
29549;BME280;16487;53.094;8.800;2023-04-19T07:05:05;102645.28;;;6.40;100.00
29549;BME280;16487;53.094;8.800;2023-04-19T07:07:33;102662.97;;;6.54;100.00
29549;BME280;16487;53.094;8.800;2023-04-19T07:10:00;102679.59;;;6.54;100.00
29549;BME280;16487;53.094;8.800;2023-04-19T07:12:29;102695.16;;;6.62;100.00
29549;BME280;16487;53.094;8.800;2023-04-19T07:14:56;102713.94;;;6.72;100.00
29549;BME280;16487;53.094;8.800;2023-04-19T07:17:24;102722.94;;;6.88;100.00
29549;BME280;16487;53.094;8.800;2023-04-19T07:19:51;102738.22;;;7.02;100.00
29549;BME280;16487;53.094;8.800;2023-04-19T07:22:18;102759.47;;;7.17;100.00
29549;BME280;16487;53.094;8.800;2023-04-19T07:24:45;102783.94;;;7.34;100.00
29549;BME280;16487;53.094;8.800;2023-04-19T07:27:13;102793.66;;;7.47;100.00
29549;BME280;16487;53.094;8.800;2023-04-19T07:29:41;102818.41;;;7.59;100.00
29549;BME280;16487;53.094;8.800;2023-04-19T07:32:09;102835.78;;;7.78;100.00
29549;BME280;16487;53.094;8.800;2023-04-19T07:34:36;102859.31;;;7.88;100.00
29549;BME280;16487;53.094;8.800;2023-04-19T07:37:04;102882.38;;;7.92;100.00
29549;BME280;16487;53.094;8.800;2023-04-19T07:39:31;102909.19;;;8.07;100.00
29549;BME280;16487;53.094;8.800;2023-04-19T07:41:58;102921.56;;;8.09;100.00
29549;BME280;16487;53.094;8.800;2023-04-19T07:44:26;102924.06;;;8.18;100.00
29549;BME280;16487;53.094;8.800;2023-04-19T07:46:55;102934.50;;;8.25;100.00
29549;BME280;16487;53.094;8.800;2023-04-19T07:49:22;102945.19;;;8.49;100.00
29549;BME280;16487;53.094;8.800;2023-04-19T07:51:49;102948.97;;;8.63;100.00
29549;BME280;16487;53.094;8.800;2023-04-19T07:54:17;102964.91;;;8.66;100.00
29549;BME280;16487;53.094;8.800;2023-04-19T07:56:44;102972.56;;;8.76;100.00
29549;BME280;16487;53.094;8.800;2023-04-19T07:59:11;102972.06;;;8.97;100.00
29549;BME280;16487;53.094;8.800;2023-04-19T08:01:39;102978.41;;;8.97;100.00
29549;BME280;16487;53.094;8.800;2023-04-19T08:04:07;102979.53;;;9.22;100.00
29549;BME280;16487;53.094;8.800;2023-04-19T08:06:36;102984.34;;;9.25;100.00
29549;BME280;16487;53.094;8.800;2023-04-19T08:09:04;102985.19;;;9.30;100.00
29549;BME280;16487;53.094;8.800;2023-04-19T08:11:31;102996.31;;;9.30;100.00
29549;BME280;16487;53.094;8.800;2023-04-19T08:13:58;102999.69;;;9.46;100.00
29549;BME280;16487;53.094;8.800;2023-04-19T08:16:41;103007.91;;;9.72;100.00
29549;BME280;16487;53.094;8.800;2023-04-19T08:19:29;103018.34;;;9.82;100.00
29549;BME280;16487;53.094;8.800;2023-04-19T08:21:57;103026.47;;;9.94;100.00
29549;BME280;16487;53.094;8.800;2023-04-19T08:24:24;103035.28;;;10.03;100.00
29549;BME280;16487;53.094;8.800;2023-04-19T08:26:52;103028.91;;;9.99;100.00
29549;BME280;16487;53.094;8.800;2023-04-19T08:29:20;103033.16;;;10.26;100.00
29549;BME280;16487;53.094;8.800;2023-04-19T08:31:47;103047.28;;;10.47;100.00
29549;BME280;16487;53.094;8.800;2023-04-19T08:34:14;103070.13;;;10.70;100.00
29549;BME280;16487;53.094;8.800;2023-04-19T08:36:43;103063.06;;;10.83;100.00
29549;BME280;16487;53.094;8.800;2023-04-19T08:39:22;103058.44;;;11.08;100.00
29549;BME280;16487;53.094;8.800;2023-04-19T08:42:03;103055.25;;;11.13;100.00
29549;BME280;16487;53.094;8.800;2023-04-19T08:44:39;103049.75;;;11.27;100.00
29549;BME280;16487;53.094;8.800;2023-04-19T08:47:27;103050.50;;;11.17;100.00
29549;BME280;16487;53.094;8.800;2023-04-19T08:50:01;103041.84;;;11.40;100.00
29549;BME280;16487;53.094;8.800;2023-04-19T08:52:35;103045.09;;;11.52;100.00
29549;BME280;16487;53.094;8.800;2023-04-19T08:55:20;103053.84;;;11.51;100.00
29549;BME280;16487;53.094;8.800;2023-04-19T08:57:48;103043.84;;;11.50;100.00
29549;BME280;16487;53.094;8.800;2023-04-19T09:00:16;103040.31;;;11.64;100.00
29549;BME280;16487;53.094;8.800;2023-04-19T09:02:46;103028.31;;;11.52;100.00
29549;BME280;16487;53.094;8.800;2023-04-19T09:05:14;103030.72;;;11.57;100.00
29549;BME280;16487;53.094;8.800;2023-04-19T09:07:44;103034.78;;;11.74;100.00
29549;BME280;16487;53.094;8.800;2023-04-19T09:10:13;103028.44;;;12.05;100.00
29549;BME280;16487;53.094;8.800;2023-04-19T09:12:41;103019.66;;;11.86;100.00
29549;BME280;16487;53.094;8.800;2023-04-19T09:15:09;103028.44;;;12.05;100.00
29549;BME280;16487;53.094;8.800;2023-04-19T09:17:37;103026.47;;;12.20;100.00
29549;BME280;16487;53.094;8.800;2023-04-19T09:20:06;103002.91;;;12.35;100.00
29549;BME280;16487;53.094;8.800;2023-04-19T09:22:33;103007.69;;;12.45;100.00
29549;BME280;16487;53.094;8.800;2023-04-19T09:25:02;103018.91;;;12.34;100.00
29549;BME280;16487;53.094;8.800;2023-04-19T09:27:49;103018.09;;;12.23;100.00
29549;BME280;16487;53.094;8.800;2023-04-19T09:30:21;103018.09;;;12.20;100.00
29549;BME280;16487;53.094;8.800;2023-04-19T09:33:00;103027.28;;;12.38;100.00
29549;BME280;16487;53.094;8.800;2023-04-19T09:35:38;103015.69;;;12.57;100.00
29549;BME280;16487;53.094;8.800;2023-04-19T09:38:07;103003.28;;;12.47;100.00
29549;BME280;16487;53.094;8.800;2023-04-19T09:40:36;103006.91;;;12.51;100.00
29549;BME280;16487;53.094;8.800;2023-04-19T09:43:04;102988.47;;;12.61;100.00
29549;BME280;16487;53.094;8.800;2023-04-19T09:45:41;102979.22;;;12.85;100.00
29549;BME280;16487;53.094;8.800;2023-04-19T09:48:09;102964.03;;;13.69;100.00
29549;BME280;16487;53.094;8.800;2023-04-19T09:50:51;102939.31;;;15.46;100.00
29549;BME280;16487;53.094;8.800;2023-04-19T09:53:27;102932.09;;;15.15;100.00
29549;BME280;16487;53.094;8.800;2023-04-19T09:55:57;102925.56;;;14.95;100.00
29549;BME280;16487;53.094;8.800;2023-04-19T09:58:29;102931.97;;;15.26;100.00
29549;BME280;16487;53.094;8.800;2023-04-19T10:00:59;102925.66;;;15.18;100.00
29549;BME280;16487;53.094;8.800;2023-04-19T10:03:41;102914.94;;;15.66;100.00
29549;BME280;16487;53.094;8.800;2023-04-19T10:06:09;102890.16;;;16.70;100.00
29549;BME280;16487;53.094;8.800;2023-04-19T10:08:58;102887.38;;;16.27;100.00
29549;BME280;16487;53.094;8.800;2023-04-19T10:11:30;102879.50;;;16.38;100.00
29549;BME280;16487;53.094;8.800;2023-04-19T10:13:59;102860.22;;;16.37;100.00
29549;BME280;16487;53.094;8.800;2023-04-19T10:16:29;102846.63;;;16.12;100.00
29549;BME280;16487;53.094;8.800;2023-04-19T10:18:56;102853.63;;;15.58;100.00
29549;BME280;16487;53.094;8.800;2023-04-19T10:21:26;102845.81;;;15.92;100.00
29549;BME280;16487;53.094;8.800;2023-04-19T10:23:54;102842.41;;;16.24;100.00
29549;BME280;16487;53.094;8.800;2023-04-19T10:26:21;102829.78;;;16.32;100.00
29549;BME280;16487;53.094;8.800;2023-04-19T10:28:50;102801.78;;;16.99;100.00
29549;BME280;16487;53.094;8.800;2023-04-19T10:31:19;102822.56;;;16.70;100.00
29549;BME280;16487;53.094;8.800;2023-04-19T10:33:47;102797.66;;;16.68;100.00
29549;BME280;16487;53.094;8.800;2023-04-19T10:36:14;102799.16;;;16.14;100.00
29549;BME280;16487;53.094;8.800;2023-04-19T10:38:43;102805.69;;;15.88;100.00
29549;BME280;16487;53.094;8.800;2023-04-19T10:41:11;102801.47;;;15.99;100.00
29549;BME280;16487;53.094;8.800;2023-04-19T10:43:44;102796.72;;;16.36;100.00
29549;BME280;16487;53.094;8.800;2023-04-19T10:46:35;102802.53;;;16.05;100.00
29549;BME280;16487;53.094;8.800;2023-04-19T10:49:04;102796.94;;;16.64;100.00
29549;BME280;16487;53.094;8.800;2023-04-19T10:51:32;102779.41;;;16.57;100.00
29549;BME280;16487;53.094;8.800;2023-04-19T10:54:01;102782.94;;;16.61;100.00
29549;BME280;16487;53.094;8.800;2023-04-19T10:56:57;102777.47;;;16.54;100.00
29549;BME280;16487;53.094;8.800;2023-04-19T10:59:25;102770.31;;;16.69;100.00
29549;BME280;16487;53.094;8.800;2023-04-19T11:01:55;102767.25;;;16.95;100.00
29549;BME280;16487;53.094;8.800;2023-04-19T11:07:26;102755.69;;;16.74;100.00
29549;BME280;16487;53.094;8.800;2023-04-19T11:09:53;102748.94;;;17.36;100.00
29549;BME280;16487;53.094;8.800;2023-04-19T11:12:20;102738.81;;;17.54;100.00
29549;BME280;16487;53.094;8.800;2023-04-19T11:14:50;102708.50;;;17.58;100.00
29549;BME280;16487;53.094;8.800;2023-04-19T11:17:21;102736.81;;;17.55;100.00
29549;BME280;16487;53.094;8.800;2023-04-19T11:19:53;102727.09;;;18.42;100.00
29549;BME280;16487;53.094;8.800;2023-04-19T11:22:28;102731.47;;;18.01;100.00
29549;BME280;16487;53.094;8.800;2023-04-19T11:24:56;102718.25;;;18.40;100.00
29549;BME280;16487;53.094;8.800;2023-04-19T11:27:23;102715.25;;;18.59;100.00
29549;BME280;16487;53.094;8.800;2023-04-19T11:29:51;102678.69;;;19.62;100.00
29549;BME280;16487;53.094;8.800;2023-04-19T11:32:21;102694.69;;;19.43;100.00
29549;BME280;16487;53.094;8.800;2023-04-19T11:34:48;102671.44;;;20.25;100.00
29549;BME280;16487;53.094;8.800;2023-04-19T11:37:16;102683.38;;;19.43;100.00
29549;BME280;16487;53.094;8.800;2023-04-19T11:39:46;102685.00;;;19.19;100.00
29549;BME280;16487;53.094;8.800;2023-04-19T11:42:17;102682.06;;;19.35;100.00
29549;BME280;16487;53.094;8.800;2023-04-19T11:44:49;102669.38;;;18.80;100.00
29549;BME280;16487;53.094;8.800;2023-04-19T11:47:17;102690.41;;;18.00;100.00
29549;BME280;16487;53.094;8.800;2023-04-19T11:49:46;102683.16;;;18.91;100.00
29549;BME280;16487;53.094;8.800;2023-04-19T11:52:19;102691.81;;;18.34;100.00
29549;BME280;16487;53.094;8.800;2023-04-19T11:54:47;102674.75;;;18.24;100.00
29549;BME280;16487;53.094;8.800;2023-04-19T11:57:14;102669.13;;;18.50;100.00
29549;BME280;16487;53.094;8.800;2023-04-19T12:00:01;102696.97;;;16.56;100.00
29549;BME280;16487;53.094;8.800;2023-04-19T12:02:38;102693.91;;;16.99;100.00
29549;BME280;16487;53.094;8.800;2023-04-19T12:05:09;102676.94;;;18.46;100.00
29549;BME280;16487;53.094;8.800;2023-04-19T12:07:59;102671.22;;;18.20;100.00
29549;BME280;16487;53.094;8.800;2023-04-19T12:10:26;102661.53;;;19.44;100.00
29549;BME280;16487;53.094;8.800;2023-04-19T12:12:53;102647.47;;;20.17;100.00
29549;BME280;16487;53.094;8.800;2023-04-19T12:15:21;102645.38;;;20.39;100.00
29549;BME280;16487;53.094;8.800;2023-04-19T12:17:56;102635.03;;;19.93;100.00
29549;BME280;16487;53.094;8.800;2023-04-19T12:20:32;102650.00;;;19.04;100.00
29549;BME280;16487;53.094;8.800;2023-04-19T12:22:59;102637.09;;;19.71;100.00
29549;BME280;16487;53.094;8.800;2023-04-19T12:25:28;102652.47;;;19.02;100.00
29549;BME280;16487;53.094;8.800;2023-04-19T12:27:56;102637.56;;;19.70;100.00
29549;BME280;16487;53.094;8.800;2023-04-19T12:30:23;102625.28;;;19.17;100.00
29549;BME280;16487;53.094;8.800;2023-04-19T12:32:51;102649.44;;;18.96;100.00
29549;BME280;16487;53.094;8.800;2023-04-19T12:35:18;102635.28;;;19.09;100.00
29549;BME280;16487;53.094;8.800;2023-04-19T12:37:47;102612.28;;;19.19;100.00
29549;BME280;16487;53.094;8.800;2023-04-19T12:40:14;102597.88;;;19.82;100.00
29549;BME280;16487;53.094;8.800;2023-04-19T12:42:42;102590.34;;;20.49;95.83
29549;BME280;16487;53.094;8.800;2023-04-19T12:45:11;102593.06;;;20.62;98.23
29549;BME280;16487;53.094;8.800;2023-04-19T12:47:38;102592.19;;;20.43;95.32
29549;BME280;16487;53.094;8.800;2023-04-19T12:50:07;102612.75;;;19.52;96.03
29549;BME280;16487;53.094;8.800;2023-04-19T12:52:35;102598.06;;;19.45;95.21
29549;BME280;16487;53.094;8.800;2023-04-19T12:55:05;102619.34;;;19.02;96.03
29549;BME280;16487;53.094;8.800;2023-04-19T12:57:32;102608.13;;;19.46;94.80
29549;BME280;16487;53.094;8.800;2023-04-19T12:59:59;102587.59;;;19.76;93.54
29549;BME280;16487;53.094;8.800;2023-04-19T13:02:27;102569.09;;;19.84;93.87